aviador You're here:

KSPA Decoded Metar

SPARTANBURG VOR in SC, USA
Report Time2018-02-21 21:15:00
UTC Time2018-02-21 21:24:11
Flight Rules vfr VFR
WindCalm
Visibility9999 m
Phenomena:N/A
Clouds:Scattered 030 Hf
Scattered 085 Hf
Expected CloudBase > 3,600 ft AGL from Temp-Dew spread
CeilingNone
Temp25°C (ISA +12)
Dew Point16°C (57% RH)
QNH1028 hPa
Density Alt2,123 ft
Elevation994 ft
Report Wrong Elevation
Raw Report
METAR KSPA 212115Z AUTO 00000KT 10SM SCT030 SCT085 25/16 A3037 RMK
AO2=

Extra information for KSPA:More info

Metar Taf Metar & Taf Last 4 Metars F.Rules Stats Wind Profile Meteogram Temp Stats Airport Information Weather charts Add Link Nearby VenuesMetar ALERT Operation Metar Decoded Social comments

AIRNAV info for KSPA